Time;durP1;ratioP1;P1;durP2;ratioP2;P2;SDS_P1;SDS_P2;PMS_P1;PMS_P2;Temp;Humidity;BMP_temperature;BMP_pressure;BME280_temperature;BME280_humidity;BME280_pressure;Samples;Min_cycle;Max_cycle;Signal;HPM_P1;HPM_P2
2021/12/10 00:00:01;;;;;;;7.25;4.65;;;;;;;;;;5070125;28;20016;-57
2021/12/10 00:02:34;;;;;;;7.30;4.07;;;;;;;;;;5062270;28;20255;-57
2021/12/10 00:05:00;;;;;;;9.23;4.25;;;;;;;;;;5062194;28;20052;-57
2021/12/10 00:07:27;;;;;;;6.45;4.10;;;;;;;;;;5064171;28;20074;-57
2021/12/10 00:09:58;;;;;;;6.38;4.20;;;;;;;;;;5066554;28;20025;-57
2021/12/10 00:12:32;;;;;;;7.10;4.63;;;;;;;;;;5049418;28;20495;-56
2021/12/10 00:14:58;;;;;;;10.35;5.57;;;;;;;;;;5067988;28;20024;-56
2021/12/10 00:17:24;;;;;;;10.90;6.00;;;;;;;;;;5087153;28;20101;-57
2021/12/10 00:19:54;;;;;;;10.35;5.47;;;;;;;;;;5078427;28;20036;-57
2021/12/10 00:22:39;;;;;;;8.75;5.07;;;;;;;;;;5049023;28;20696;-57
2021/12/10 00:25:18;;;;;;;8.07;4.65;;;;;;;;;;5067021;28;20024;-57
2021/12/10 00:27:45;;;;;;;5.78;3.75;;;;;;;;;;5067117;28;20099;-57
2021/12/10 00:30:13;;;;;;;7.75;4.20;;;;;;;;;;5066807;28;20446;-57
2021/12/10 00:32:54;;;;;;;6.45;3.60;;;;;;;;;;5066733;28;20074;-57
2021/12/10 00:35:23;;;;;;;5.57;3.83;;;;;;;;;;5066622;28;20082;-57
2021/12/10 00:37:49;;;;;;;5.28;3.60;;;;;;;;;;5065754;28;20048;-57
2021/12/10 00:40:16;;;;;;;6.85;4.20;;;;;;;;;;5065466;28;20043;-57
2021/12/10 00:42:42;;;;;;;7.68;4.20;;;;;;;;;;5066919;28;20023;-57
2021/12/10 00:45:11;;;;;;;7.07;4.15;;;;;;;;;;5066279;28;20024;-56
2021/12/10 00:47:38;;;;;;;7.30;4.32;;;;;;;;;;5066651;28;20058;-57
2021/12/10 00:50:06;;;;;;;7.35;4.10;;;;;;;;;;5066476;28;20080;-57
2021/12/10 00:52:32;;;;;;;5.75;4.07;;;;;;;;;;5066732;28;20024;-57
2021/12/10 00:54:58;;;;;;;6.15;3.70;;;;;;;;;;5048863;28;20029;-57
2021/12/10 00:57:24;;;;;;;5.15;2.75;;;;;;;;;;5067136;28;20021;-57
2021/12/10 00:59:51;;;;;;;4.28;3.40;;;;;;;;;;5065770;28;20055;-57
2021/12/10 01:02:22;;;;;;;4.53;3.00;;;;;;;;;;5077917;28;20025;-57
2021/12/10 01:04:51;;;;;;;5.85;3.50;;;;;;;;;;5067790;28;20051;-57
2021/12/10 01:07:20;;;;;;;6.22;3.75;;;;;;;;;;5067006;28;20060;-57
2021/12/10 01:09:47;;;;;;;3.08;2.60;;;;;;;;;;5068362;28;20739;-57
2021/12/10 01:12:15;;;;;;;8.82;4.30;;;;;;;;;;5068009;28;20127;-57
2021/12/10 01:25:41;;;;;;;3.22;2.85;;;;;;;;;;5047996;28;20136;-57
2021/12/10 01:28:08;;;;;;;3.78;2.78;;;;;;;;;;5047988;28;20111;-57
2021/12/10 01:30:37;;;;;;;3.90;2.40;;;;;;;;;;5047896;28;20036;-57
2021/12/10 01:33:08;;;;;;;2.80;2.25;;;;;;;;;;5059622;28;20101;-57
2021/12/10 01:35:39;;;;;;;3.80;2.38;;;;;;;;;;5067721;28;20031;-57
2021/12/10 01:38:06;;;;;;;2.60;1.98;;;;;;;;;;5067446;28;20521;-57
2021/12/10 01:40:35;;;;;;;3.15;1.98;;;;;;;;;;5068050;28;20247;-57
2021/12/10 01:43:07;;;;;;;4.22;2.40;;;;;;;;;;5067601;28;20028;-57
2021/12/10 01:45:45;;;;;;;2.97;2.20;;;;;;;;;;5067356;28;20053;-57
2021/12/10 01:48:13;;;;;;;2.83;2.10;;;;;;;;;;5067121;28;20040;-57
2021/12/10 01:50:39;;;;;;;4.15;2.20;;;;;;;;;;5067386;28;20048;-57
2021/12/10 01:53:08;;;;;;;2.95;1.98;;;;;;;;;;5067530;28;20616;-57
2021/12/10 01:55:36;;;;;;;3.65;2.40;;;;;;;;;;5067424;28;20483;-57
2021/12/10 01:58:04;;;;;;;1.92;1.77;;;;;;;;;;5067005;28;20522;-57
2021/12/10 02:00:31;;;;;;;2.60;1.77;;;;;;;;;;5067582;28;20672;-57
2021/12/10 02:02:58;;;;;;;2.78;1.70;;;;;;;;;;5066996;28;20167;-57
2021/12/10 02:05:24;;;;;;;3.50;2.30;;;;;;;;;;5064479;28;20175;-57
2021/12/10 02:07:51;;;;;;;3.88;2.15;;;;;;;;;;5065436;28;20414;-57
2021/12/10 02:10:18;;;;;;;2.78;2.10;;;;;;;;;;5067101;28;20015;-57
2021/12/10 02:12:45;;;;;;;5.00;2.30;;;;;;;;;;5067307;28;20020;-56
2021/12/10 02:15:12;;;;;;;4.57;3.13;;;;;;;;;;5067045;28;20502;-57
2021/12/10 02:17:40;;;;;;;6.75;3.03;;;;;;;;;;5067104;28;20526;-57
2021/12/10 02:20:09;;;;;;;5.00;2.85;;;;;;;;;;5065863;28;20027;-57
2021/12/10 02:22:35;;;;;;;5.60;2.80;;;;;;;;;;5066948;28;20024;-56
2021/12/10 02:25:02;;;;;;;6.22;2.75;;;;;;;;;;5066022;28;20024;-57
2021/12/10 02:27:28;;;;;;;5.93;3.08;;;;;;;;;;5049313;28;20210;-56
2021/12/10 02:29:54;;;;;;;2.97;2.15;;;;;;;;;;5066790;28;20419;-56
2021/12/10 02:32:22;;;;;;;7.05;3.10;;;;;;;;;;5064785;28;20033;-55
2021/12/10 02:34:49;;;;;;;6.18;2.70;;;;;;;;;;5066807;28;20025;-56
2021/12/10 02:37:16;;;;;;;7.07;2.90;;;;;;;;;;5066426;28;20101;-56
2021/12/10 02:39:42;;;;;;;5.65;2.70;;;;;;;;;;5066571;28;20541;-56
2021/12/10 02:42:08;;;;;;;5.63;2.90;;;;;;;;;;5066428;28;20038;-56
2021/12/10 02:44:34;;;;;;;7.45;2.90;;;;;;;;;;5066482;28;20103;-56
2021/12/10 02:47:01;;;;;;;4.55;2.60;;;;;;;;;;5065579;28;20510;-56
2021/12/10 02:49:28;;;;;;;4.25;2.28;;;;;;;;;;5067074;28;20020;-55
2021/12/10 02:51:54;;;;;;;3.72;2.20;;;;;;;;;;5066570;28;20060;-55
2021/12/10 02:54:32;;;;;;;4.55;2.28;;;;;;;;;;5066339;28;20078;-55
2021/12/10 02:56:58;;;;;;;2.22;1.67;;;;;;;;;;5067132;28;20037;-55
2021/12/10 02:59:24;;;;;;;2.15;1.50;;;;;;;;;;5065340;28;20029;-55
2021/12/10 03:01:51;;;;;;;1.90;1.40;;;;;;;;;;5066458;28;20075;-55
2021/12/10 03:04:18;;;;;;;2.67;1.38;;;;;;;;;;5065982;28;20025;-55
2021/12/10 03:06:50;;;;;;;2.83;1.30;;;;;;;;;;5065160;28;20025;-55
2021/12/10 03:09:17;;;;;;;2.25;1.45;;;;;;;;;;5066373;28;20090;-55
2021/12/10 03:11:46;;;;;;;1.67;1.20;;;;;;;;;;5066245;28;20115;-54
2021/12/10 03:14:13;;;;;;;0.82;0.82;;;;;;;;;;5066232;28;20056;-54
2021/12/10 03:16:40;;;;;;;1.98;1.10;;;;;;;;;;5066310;28;20077;-54
2021/12/10 03:19:06;;;;;;;1.02;0.93;;;;;;;;;;5065788;28;20464;-55
2021/12/10 03:21:33;;;;;;;0.82;0.80;;;;;;;;;;5065265;28;20108;-56
2021/12/10 03:23:59;;;;;;;1.65;0.85;;;;;;;;;;5066154;28;20020;-55
2021/12/10 03:26:25;;;;;;;1.05;0.90;;;;;;;;;;5066837;28;20075;-55
2021/12/10 03:28:53;;;;;;;0.63;0.55;;;;;;;;;;5066227;28;20081;-55
2021/12/10 03:31:19;;;;;;;0.82;0.60;;;;;;;;;;5065895;28;20054;-54
2021/12/10 03:33:46;;;;;;;0.90;0.60;;;;;;;;;;5063872;28;20025;-55
2021/12/10 03:36:12;;;;;;;0.60;0.60;;;;;;;;;;5065875;28;20032;-54
2021/12/10 03:38:39;;;;;;;0.90;0.63;;;;;;;;;;5065897;28;20043;-53
2021/12/10 03:41:06;;;;;;;0.60;0.60;;;;;;;;;;5065888;28;20025;-54
2021/12/10 03:43:32;;;;;;;0.70;0.70;;;;;;;;;;5067386;28;20094;-52
2021/12/10 03:46:00;;;;;;;1.10;0.63;;;;;;;;;;5070522;28;20392;-51
2021/12/10 03:48:31;;;;;;;0.52;0.50;;;;;;;;;;5070196;28;20044;-53
2021/12/10 03:50:58;;;;;;;0.82;0.70;;;;;;;;;;5070682;28;20062;-53
2021/12/10 03:53:24;;;;;;;0.40;0.40;;;;;;;;;;5067775;28;20025;-54
2021/12/10 03:55:51;;;;;;;0.50;0.50;;;;;;;;;;5069798;28;20051;-54
2021/12/10 03:58:17;;;;;;;0.60;0.60;;;;;;;;;;5069497;28;20020;-53
2021/12/10 04:00:47;;;;;;;0.40;0.40;;;;;;;;;;5069843;28;20035;-54
2021/12/10 04:03:14;;;;;;;0.40;0.40;;;;;;;;;;5068268;28;20119;-53
2021/12/10 04:05:41;;;;;;;0.40;0.40;;;;;;;;;;5069262;28;20139;-53
2021/12/10 04:08:07;;;;;;;0.70;0.35;;;;;;;;;;5069318;28;20395;-54
2021/12/10 04:10:33;;;;;;;0.35;0.30;;;;;;;;;;5068868;28;20040;-53
2021/12/10 04:12:59;;;;;;;0.32;0.32;;;;;;;;;;5069199;28;20033;-52
2021/12/10 04:15:28;;;;;;;0.30;0.30;;;;;;;;;;5070057;28;20029;-54
2021/12/10 04:17:54;;;;;;;0.40;0.40;;;;;;;;;;5068253;28;20032;-54
2021/12/10 04:20:22;;;;;;;0.60;0.40;;;;;;;;;;5069152;28;20033;-53
2021/12/10 04:22:49;;;;;;;0.35;0.30;;;;;;;;;;5069445;28;20094;-52
2021/12/10 04:25:16;;;;;;;0.40;0.40;;;;;;;;;;5068016;28;20024;-54
2021/12/10 04:27:43;;;;;;;0.40;0.40;;;;;;;;;;5068354;28;20128;-53
2021/12/10 04:30:12;;;;;;;0.77;0.70;;;;;;;;;;5068614;28;20107;-52
2021/12/10 04:32:38;;;;;;;0.50;0.50;;;;;;;;;;5069027;28;20767;-51
2021/12/10 04:35:05;;;;;;;1.00;0.93;;;;;;;;;;5068947;28;20090;-50
2021/12/10 04:37:31;;;;;;;0.40;0.40;;;;;;;;;;5068075;28;20052;-53
2021/12/10 04:40:00;;;;;;;0.50;0.50;;;;;;;;;;5069443;28;20406;-53
2021/12/10 04:42:26;;;;;;;1.35;0.57;;;;;;;;;;5069527;28;20582;-54
2021/12/10 04:44:53;;;;;;;0.70;0.70;;;;;;;;;;5068831;28;20407;-53
2021/12/10 04:47:19;;;;;;;0.85;0.77;;;;;;;;;;5067821;28;20081;-54
2021/12/10 04:49:45;;;;;;;0.85;0.85;;;;;;;;;;5068795;28;20035;-54
2021/12/10 04:52:12;;;;;;;1.35;0.90;;;;;;;;;;5068627;28;20099;-54
2021/12/10 04:54:38;;;;;;;1.05;0.90;;;;;;;;;;5067661;28;20029;-54
2021/12/10 04:57:04;;;;;;;1.00;0.90;;;;;;;;;;5067304;28;20024;-55
2021/12/10 04:59:32;;;;;;;0.70;0.70;;;;;;;;;;5068410;28;20115;-56
2021/12/10 05:02:00;;;;;;;1.45;0.80;;;;;;;;;;5069242;28;20392;-55
2021/12/10 05:04:27;;;;;;;1.73;0.93;;;;;;;;;;5069172;28;20074;-54
2021/12/10 05:06:53;;;;;;;0.88;0.88;;;;;;;;;;5065728;28;20032;-56
2021/12/10 05:09:20;;;;;;;0.80;0.80;;;;;;;;;;5068406;28;20036;-55
2021/12/10 05:11:47;;;;;;;1.70;1.00;;;;;;;;;;5068546;28;20492;-57
2021/12/10 05:14:13;;;;;;;1.10;1.00;;;;;;;;;;5068302;28;20032;-56
2021/12/10 05:16:43;;;;;;;1.45;1.30;;;;;;;;;;5067223;28;20032;-57
2021/12/10 05:19:10;;;;;;;1.10;1.00;;;;;;;;;;5067494;28;20143;-57
2021/12/10 05:21:36;;;;;;;1.40;1.30;;;;;;;;;;5068349;28;20028;-57
2021/12/10 05:24:04;;;;;;;1.85;1.08;;;;;;;;;;5067120;28;20035;-57
2021/12/10 05:26:30;;;;;;;1.00;1.00;;;;;;;;;;5067756;28;20028;-58
2021/12/10 05:28:56;;;;;;;1.23;1.00;;;;;;;;;;5068186;28;20030;-58
2021/12/10 05:31:23;;;;;;;1.27;1.10;;;;;;;;;;5067944;28;20040;-58
2021/12/10 05:33:49;;;;;;;2.38;1.60;;;;;;;;;;5067817;28;20039;-58
2021/12/10 05:36:15;;;;;;;1.13;1.00;;;;;;;;;;5067066;28;20047;-58
2021/12/10 05:38:41;;;;;;;1.20;1.02;;;;;;;;;;5067376;28;20703;-58
2021/12/10 05:41:10;;;;;;;1.48;1.13;;;;;;;;;;5067648;28;20020;-58
2021/12/10 05:43:36;;;;;;;1.00;0.88;;;;;;;;;;5067881;28;20452;-58
2021/12/10 05:46:03;;;;;;;1.17;1.08;;;;;;;;;;5066883;28;20028;-57
2021/12/10 05:48:29;;;;;;;2.17;1.50;;;;;;;;;;5067999;28;20814;-57
2021/12/10 05:50:55;;;;;;;1.85;1.30;;;;;;;;;;5068333;28;20557;-58
2021/12/10 05:53:21;;;;;;;1.50;1.35;;;;;;;;;;5067408;28;20439;-58
2021/12/10 05:55:48;;;;;;;1.92;1.20;;;;;;;;;;5066941;28;20120;-58
2021/12/10 05:58:15;;;;;;;1.30;1.02;;;;;;;;;;5067402;28;20441;-58
2021/12/10 06:00:46;;;;;;;3.88;1.20;;;;;;;;;;5065806;28;20108;-58
2021/12/10 06:03:12;;;;;;;2.45;1.40;;;;;;;;;;5067058;28;20694;-58
2021/12/10 06:05:38;;;;;;;2.63;1.70;;;;;;;;;;5066233;28;20025;-58
2021/12/10 06:08:05;;;;;;;2.55;1.90;;;;;;;;;;5066497;28;20123;-58
2021/12/10 06:10:31;;;;;;;1.98;1.60;;;;;;;;;;5067240;28;20456;-57
2021/12/10 06:12:57;;;;;;;3.95;1.25;;;;;;;;;;5065506;28;20449;-57
2021/12/10 06:15:24;;;;;;;7.57;4.30;;;;;;;;;;5066236;28;20090;-57
2021/12/10 06:17:50;;;;;;;7.55;4.00;;;;;;;;;;5066715;28;20098;-56
2021/12/10 06:20:20;;;;;;;4.00;2.63;;;;;;;;;;5066566;28;20691;-57
2021/12/10 06:22:46;;;;;;;3.53;2.50;;;;;;;;;;5067151;28;20067;-57
2021/12/10 06:25:13;;;;;;;1.13;1.02;;;;;;;;;;5066040;28;20074;-57
2021/12/10 06:27:44;;;;;;;2.20;1.45;;;;;;;;;;5066995;28;20071;-57
2021/12/10 06:30:12;;;;;;;3.28;2.05;;;;;;;;;;5066373;28;20036;-57
2021/12/10 06:32:38;;;;;;;2.95;1.45;;;;;;;;;;5065519;28;20063;-57
2021/12/10 06:35:04;;;;;;;2.92;1.48;;;;;;;;;;5066434;28;20730;-57
2021/12/10 06:37:31;;;;;;;1.75;1.10;;;;;;;;;;5066750;28;20500;-57
2021/12/10 06:39:57;;;;;;;2.15;1.40;;;;;;;;;;5067178;28;20037;-56
2021/12/10 06:42:23;;;;;;;1.00;0.80;;;;;;;;;;5065097;28;20111;-56
2021/12/10 06:44:49;;;;;;;1.85;1.02;;;;;;;;;;5065834;28;20023;-57
2021/12/10 06:47:15;;;;;;;1.73;0.90;;;;;;;;;;5064061;28;20020;-57
2021/12/10 06:49:42;;;;;;;1.33;0.80;;;;;;;;;;5064346;28;20385;-58
2021/12/10 06:52:08;;;;;;;0.85;0.77;;;;;;;;;;5064140;28;20032;-57
2021/12/10 06:54:35;;;;;;;2.35;1.05;;;;;;;;;;5064091;28;20036;-58
2021/12/10 06:57:01;;;;;;;1.50;1.00;;;;;;;;;;5063863;28;20403;-57
2021/12/10 06:59:27;;;;;;;2.38;1.38;;;;;;;;;;5064660;28;20036;-58
2021/12/10 07:01:54;;;;;;;3.70;1.90;;;;;;;;;;5064383;28;20033;-58
2021/12/10 07:04:20;;;;;;;5.47;2.50;;;;;;;;;;5064306;28;20655;-58
2021/12/10 07:06:47;;;;;;;5.63;1.90;;;;;;;;;;5043342;28;20499;-58
2021/12/10 07:09:23;;;;;;;2.42;1.55;;;;;;;;;;5065217;28;20036;-57
2021/12/10 07:11:50;;;;;;;2.75;1.55;;;;;;;;;;5066412;28;20033;-58
2021/12/10 07:14:17;;;;;;;3.33;1.92;;;;;;;;;;5049350;28;20483;-57
2021/12/10 07:16:43;;;;;;;6.97;2.90;;;;;;;;;;5045998;28;20085;-58
2021/12/10 07:19:09;;;;;;;4.60;2.60;;;;;;;;;;5045152;28;20078;-58
2021/12/10 07:21:36;;;;;;;5.15;2.60;;;;;;;;;;5046345;28;20029;-57
2021/12/10 07:24:05;;;;;;;4.05;2.33;;;;;;;;;;5054988;28;20120;-59
2021/12/10 07:26:31;;;;;;;2.92;1.77;;;;;;;;;;5060972;28;20033;-58
2021/12/10 07:28:58;;;;;;;3.13;1.70;;;;;;;;;;5066690;28;20028;-58
2021/12/10 07:31:24;;;;;;;2.33;1.73;;;;;;;;;;5065625;28;20036;-59
2021/12/10 07:33:51;;;;;;;3.13;1.88;;;;;;;;;;5064645;28;20427;-59
2021/12/10 07:36:17;;;;;;;2.22;1.60;;;;;;;;;;5064292;28;20040;-58
2021/12/10 07:38:43;;;;;;;1.42;1.20;;;;;;;;;;5064197;28;20037;-58
2021/12/10 07:41:09;;;;;;;1.85;1.40;;;;;;;;;;5064353;28;20121;-58
2021/12/10 07:43:36;;;;;;;3.17;1.90;;;;;;;;;;5064602;28;20158;-58
2021/12/10 07:46:04;;;;;;;2.85;2.00;;;;;;;;;;5064230;28;20462;-58
2021/12/10 07:48:32;;;;;;;3.28;2.20;;;;;;;;;;5064718;28;20020;-58
2021/12/10 07:51:00;;;;;;;3.75;1.98;;;;;;;;;;5065346;28;20033;-57
2021/12/10 07:53:30;;;;;;;3.78;1.67;;;;;;;;;;5065097;28;20040;-56
2021/12/10 07:55:58;;;;;;;1.95;1.33;;;;;;;;;;5065060;28;20083;-57
2021/12/10 07:58:25;;;;;;;2.75;1.77;;;;;;;;;;5064214;28;20041;-56
2021/12/10 08:00:51;;;;;;;2.65;1.70;;;;;;;;;;5064216;28;20511;-57
2021/12/10 08:03:17;;;;;;;2.35;1.50;;;;;;;;;;5063969;28;20028;-56
2021/12/10 08:05:43;;;;;;;2.28;1.77;;;;;;;;;;5064146;28;20055;-55
2021/12/10 08:08:10;;;;;;;4.07;2.10;;;;;;;;;;5064068;28;20064;-55
2021/12/10 08:10:37;;;;;;;4.43;2.72;;;;;;;;;;5064138;28;20582;-56
2021/12/10 08:13:04;;;;;;;3.85;2.65;;;;;;;;;;5064028;28;20120;-54
2021/12/10 08:15:30;;;;;;;6.38;3.83;;;;;;;;;;5064303;28;20033;-55
2021/12/10 08:17:57;;;;;;;5.20;3.75;;;;;;;;;;5064683;28;20032;-56
2021/12/10 08:20:24;;;;;;;4.68;2.90;;;;;;;;;;5064052;28;20403;-54
2021/12/10 08:22:52;;;;;;;5.50;2.78;;;;;;;;;;5064084;28;20108;-56
2021/12/10 08:25:20;;;;;;;3.95;2.70;;;;;;;;;;5063853;28;20033;-52
2021/12/10 08:27:46;;;;;;;3.85;2.20;;;;;;;;;;5064051;28;20060;-54
2021/12/10 08:30:16;;;;;;;5.03;2.55;;;;;;;;;;5065331;28;20029;-53
2021/12/10 08:32:43;;;;;;;2.50;1.80;;;;;;;;;;5067647;28;20025;-55
2021/12/10 08:35:12;;;;;;;3.22;1.50;;;;;;;;;;5067651;28;20029;-55
2021/12/10 08:37:38;;;;;;;2.55;1.35;;;;;;;;;;5067453;28;20028;-55
2021/12/10 08:40:05;;;;;;;1.95;1.20;;;;;;;;;;5067326;28;20495;-54
2021/12/10 08:42:31;;;;;;;2.10;1.63;;;;;;;;;;5067511;28;20100;-55
2021/12/10 08:44:57;;;;;;;7.90;4.45;;;;;;;;;;5067661;28;20111;-55
2021/12/10 08:47:24;;;;;;;6.43;3.58;;;;;;;;;;5067227;28;20092;-54
2021/12/10 08:49:50;;;;;;;6.00;3.20;;;;;;;;;;5067588;28;20033;-55
2021/12/10 08:52:18;;;;;;;3.20;2.38;;;;;;;;;;5067139;28;20066;-55
2021/12/10 08:54:46;;;;;;;2.95;1.70;;;;;;;;;;5066622;28;20274;-54
2021/12/10 08:57:13;;;;;;;3.03;1.90;;;;;;;;;;5066938;28;20036;-53
2021/12/10 08:59:39;;;;;;;4.03;2.20;;;;;;;;;;5066896;28;20090;-53
2021/12/10 09:02:08;;;;;;;3.22;1.80;;;;;;;;;;5066999;28;20073;-52
2021/12/10 09:04:36;;;;;;;2.42;1.88;;;;;;;;;;5067525;28;20052;-54
2021/12/10 09:07:07;;;;;;;3.15;2.05;;;;;;;;;;5066194;28;20552;-55
2021/12/10 09:09:36;;;;;;;4.07;2.45;;;;;;;;;;5067063;28;20115;-54
2021/12/10 09:12:04;;;;;;;4.25;2.10;;;;;;;;;;5066949;28;20059;-54
2021/12/10 09:14:37;;;;;;;4.47;2.10;;;;;;;;;;5067121;28;20020;-56
2021/12/10 09:17:04;;;;;;;3.97;2.25;;;;;;;;;;5066728;28;20153;-55
2021/12/10 09:19:31;;;;;;;3.55;1.85;;;;;;;;;;5066982;28;20063;-54
2021/12/10 09:21:58;;;;;;;3.67;2.00;;;;;;;;;;5067302;28;20024;-54
2021/12/10 09:24:25;;;;;;;1.90;1.50;;;;;;;;;;5066585;28;20510;-54
2021/12/10 09:26:54;;;;;;;3.08;1.70;;;;;;;;;;5066672;28;20443;-54
2021/12/10 09:29:20;;;;;;;1.73;1.40;;;;;;;;;;5066370;28;20374;-54
2021/12/10 09:31:46;;;;;;;2.25;1.50;;;;;;;;;;5066661;28;20029;-55
2021/12/10 09:34:14;;;;;;;1.30;1.20;;;;;;;;;;5066516;28;20586;-54
2021/12/10 09:36:43;;;;;;;3.20;1.55;;;;;;;;;;5066443;28;20056;-54
2021/12/10 09:39:10;;;;;;;1.75;1.60;;;;;;;;;;5066210;28;20044;-55
2021/12/10 09:41:37;;;;;;;3.83;2.40;;;;;;;;;;5066450;28;20355;-54
2021/12/10 09:44:04;;;;;;;2.10;1.48;;;;;;;;;;5066009;28;20028;-54
2021/12/10 09:46:30;;;;;;;2.83;1.88;;;;;;;;;;5066568;28;20027;-55
2021/12/10 09:48:57;;;;;;;3.05;1.70;;;;;;;;;;5066787;28;20058;-54
2021/12/10 09:51:28;;;;;;;3.65;1.60;;;;;;;;;;5065962;28;20021;-55
2021/12/10 09:53:56;;;;;;;2.33;1.60;;;;;;;;;;5066112;28;20052;-55
2021/12/10 09:56:24;;;;;;;3.40;1.70;;;;;;;;;;5066085;28;20028;-54
2021/12/10 09:58:53;;;;;;;1.92;1.60;;;;;;;;;;5065502;28;20032;-57
2021/12/10 10:01:25;;;;;;;3.30;1.15;;;;;;;;;;5064982;28;20025;-55
2021/12/10 10:03:55;;;;;;;1.83;1.15;;;;;;;;;;5048035;28;20492;-55
2021/12/10 10:06:21;;;;;;;2.60;1.58;;;;;;;;;;5065532;28;20043;-53
2021/12/10 10:08:47;;;;;;;7.18;4.10;;;;;;;;;;5065619;28;20451;-55
2021/12/10 10:11:18;;;;;;;5.60;3.47;;;;;;;;;;5065650;28;20064;-54
2021/12/10 10:13:47;;;;;;;6.45;4.00;;;;;;;;;;5065253;28;20414;-54
2021/12/10 10:16:15;;;;;;;14.43;4.25;;;;;;;;;;5065496;28;20028;-55
2021/12/10 10:18:44;;;;;;;5.82;3.50;;;;;;;;;;5065599;28;20032;-55
2021/12/10 10:21:30;;;;;;;4.10;2.90;;;;;;;;;;5065443;28;20072;-55
2021/12/10 10:23:57;;;;;;;3.25;2.78;;;;;;;;;;5066154;28;20031;-54
2021/12/10 10:26:31;;;;;;;3.70;2.58;;;;;;;;;;5065074;28;20028;-54
2021/12/10 10:28:58;;;;;;;3.92;2.60;;;;;;;;;;5065908;28;20351;-55
2021/12/10 10:31:26;;;;;;;3.15;2.22;;;;;;;;;;5065825;28;20020;-54
2021/12/10 10:33:54;;;;;;;3.20;2.10;;;;;;;;;;5065435;28;20063;-55
2021/12/10 10:36:23;;;;;;;2.65;1.83;;;;;;;;;;5065322;28;20829;-56
2021/12/10 10:38:52;;;;;;;3.28;1.60;;;;;;;;;;5064920;28;20039;-55
2021/12/10 10:41:21;;;;;;;2.35;1.52;;;;;;;;;;5065066;28;20024;-55
2021/12/10 10:43:49;;;;;;;3.05;1.60;;;;;;;;;;5065007;28;20021;-54
2021/12/10 10:46:15;;;;;;;2.90;1.50;;;;;;;;;;5064845;28;20103;-55
2021/12/10 10:48:43;;;;;;;1.88;1.27;;;;;;;;;;5065180;28;20066;-55
2021/12/10 10:51:12;;;;;;;2.88;1.35;;;;;;;;;;5064888;28;20048;-55
2021/12/10 10:53:44;;;;;;;2.80;1.35;;;;;;;;;;5064353;28;20491;-55
2021/12/10 10:56:18;;;;;;;2.10;1.10;;;;;;;;;;5064736;28;20028;-54
2021/12/10 10:58:46;;;;;;;2.17;1.27;;;;;;;;;;5064505;28;20039;-54
2021/12/10 11:01:22;;;;;;;2.22;1.77;;;;;;;;;;5063908;28;20023;-55
2021/12/10 11:03:52;;;;;;;3.30;2.50;;;;;;;;;;5064122;28;20238;-55
2021/12/10 11:06:21;;;;;;;2.50;2.17;;;;;;;;;;5075733;28;20417;-55
2021/12/10 11:08:49;;;;;;;2.60;1.98;;;;;;;;;;5084890;28;20411;-55
2021/12/10 11:11:15;;;;;;;2.30;1.70;;;;;;;;;;5069917;28;20483;-55
2021/12/10 11:13:44;;;;;;;2.25;1.67;;;;;;;;;;5064562;28;20090;-55
2021/12/10 11:16:12;;;;;;;2.22;1.23;;;;;;;;;;5064278;28;20043;-54
2021/12/10 11:18:40;;;;;;;2.85;1.77;;;;;;;;;;5069738;28;20035;-55
2021/12/10 11:21:07;;;;;;;6.93;3.38;;;;;;;;;;5064183;28;20032;-57
2021/12/10 11:23:34;;;;;;;6.53;2.40;;;;;;;;;;5071378;28;20054;-57
2021/12/10 11:26:00;;;;;;;4.03;2.10;;;;;;;;;;5086265;28;20016;-57
2021/12/10 11:28:33;;;;;;;4.63;2.10;;;;;;;;;;5065972;28;20032;-57
2021/12/10 11:31:08;;;;;;;2.63;2.10;;;;;;;;;;5065666;28;20048;-56
2021/12/10 11:33:36;;;;;;;4.07;1.70;;;;;;;;;;5049859;28;20419;-57
2021/12/10 11:36:07;;;;;;;3.70;2.58;;;;;;;;;;5054704;28;20563;-57
2021/12/10 11:38:33;;;;;;;3.78;1.90;;;;;;;;;;5065624;28;20063;-57
2021/12/10 11:41:02;;;;;;;4.30;2.22;;;;;;;;;;5065457;28;20020;-57
2021/12/10 11:43:44;;;;;;;7.25;3.10;;;;;;;;;;5079895;28;20582;-57
2021/12/10 11:48:44;;;;;;;3.05;2.28;;;;;;;;;;5072113;28;20079;-55
2021/12/10 11:51:16;;;;;;;3.47;1.80;;;;;;;;;;5065497;28;20024;-56
2021/12/10 11:53:45;;;;;;;1.92;1.70;;;;;;;;;;5065146;28;20036;-56
2021/12/10 11:56:14;;;;;;;3.65;1.98;;;;;;;;;;5064987;28;20104;-56
2021/12/10 11:58:40;;;;;;;2.97;1.90;;;;;;;;;;5083230;28;20028;-56
2021/12/10 12:01:13;;;;;;;2.15;1.42;;;;;;;;;;5084688;28;20016;-56
2021/12/10 12:03:39;;;;;;;5.65;1.90;;;;;;;;;;5073727;28;20288;-55
2021/12/10 12:06:05;;;;;;;3.17;1.38;;;;;;;;;;5068271;28;20129;-57
2021/12/10 12:08:36;;;;;;;4.82;1.55;;;;;;;;;;5058419;28;20033;-58
2021/12/10 12:11:05;;;;;;;3.83;1.80;;;;;;;;;;5061935;28;20068;-58
2021/12/10 12:13:36;;;;;;;1.83;1.40;;;;;;;;;;5068169;28;20124;-57
2021/12/10 12:16:05;;;;;;;5.05;1.70;;;;;;;;;;5068022;28;20064;-57
2021/12/10 12:18:33;;;;;;;3.90;1.90;;;;;;;;;;5068745;28;20027;-57
2021/12/10 12:20:59;;;;;;;1.65;1.30;;;;;;;;;;5069512;28;20028;-58
2021/12/10 12:26:21;;;;;;;3.17;1.27;;;;;;;;;;5064288;28;20040;-57
2021/12/10 12:28:52;;;;;;;2.00;1.45;;;;;;;;;;5067714;28;20029;-57
2021/12/10 12:31:30;;;;;;;4.45;1.50;;;;;;;;;;5061410;28;20033;-58
2021/12/10 12:34:01;;;;;;;1.67;1.17;;;;;;;;;;5066297;28;20474;-57
2021/12/10 12:36:33;;;;;;;2.30;1.30;;;;;;;;;;5068284;28;20035;-57
2021/12/10 12:39:01;;;;;;;2.33;1.60;;;;;;;;;;5067805;28;20039;-57
2021/12/10 12:41:27;;;;;;;2.83;1.83;;;;;;;;;;5067946;28;20091;-57
2021/12/10 12:44:13;;;;;;;5.30;2.30;;;;;;;;;;5066726;28;20567;-56
2021/12/10 12:46:58;;;;;;;5.68;3.75;;;;;;;;;;5067300;28;20027;-56
2021/12/10 12:49:27;;;;;;;4.32;3.30;;;;;;;;;;5067174;28;20392;-57
2021/12/10 12:52:04;;;;;;;5.97;3.65;;;;;;;;;;5067332;28;20419;-57
2021/12/10 12:54:31;;;;;;;7.28;4.40;;;;;;;;;;5066934;28;20693;-57
2021/12/10 12:56:58;;;;;;;12.27;6.25;;;;;;;;;;5067875;28;20415;-57
2021/12/10 12:59:25;;;;;;;18.48;10.73;;;;;;;;;;5066910;28;20032;-57
2021/12/10 13:01:54;;;;;;;15.70;9.40;;;;;;;;;;5067087;28;20025;-57
2021/12/10 13:04:36;;;;;;;11.82;6.50;;;;;;;;;;5066518;28;20414;-57
2021/12/10 13:07:08;;;;;;;7.28;4.57;;;;;;;;;;5066851;28;20626;-56
2021/12/10 13:09:48;;;;;;;8.15;3.00;;;;;;;;;;5066725;28;20048;-56
2021/12/10 13:12:43;;;;;;;6.28;2.05;;;;;;;;;;5066358;28;20029;-57
2021/12/10 13:15:11;;;;;;;3.60;1.75;;;;;;;;;;5065887;28;20032;-57
2021/12/10 13:17:41;;;;;;;2.42;1.25;;;;;;;;;;5066749;28;20157;-56
2021/12/10 13:20:12;;;;;;;2.55;1.20;;;;;;;;;;5066591;28;20029;-56
2021/12/10 13:22:38;;;;;;;3.92;1.40;;;;;;;;;;5066225;28;20024;-55
2021/12/10 13:25:08;;;;;;;2.13;0.90;;;;;;;;;;5062460;28;20111;-57
2021/12/10 13:27:36;;;;;;;2.38;0.73;;;;;;;;;;5068217;28;20024;-57
2021/12/10 13:30:03;;;;;;;2.13;1.02;;;;;;;;;;5062610;28;20554;-57
2021/12/10 13:32:30;;;;;;;6.72;1.40;;;;;;;;;;5082715;28;20039;-56
2021/12/10 13:34:56;;;;;;;9.05;2.42;;;;;;;;;;5067173;28;20035;-56
2021/12/10 13:37:22;;;;;;;5.53;1.70;;;;;;;;;;5064489;28;20036;-57
2021/12/10 13:39:53;;;;;;;5.85;1.85;;;;;;;;;;5068838;28;20040;-57
2021/12/10 13:42:20;;;;;;;4.20;1.90;;;;;;;;;;5088255;28;20016;-57
2021/12/10 13:44:51;;;;;;;4.15;1.90;;;;;;;;;;5080739;28;20028;-57
2021/12/10 13:47:26;;;;;;;5.75;2.05;;;;;;;;;;5088504;28;20046;-56
2021/12/10 13:49:52;;;;;;;8.75;2.97;;;;;;;;;;5088701;28;20028;-56
2021/12/10 13:52:36;;;;;;;5.28;2.28;;;;;;;;;;5081779;28;20032;-57
2021/12/10 13:55:04;;;;;;;3.75;1.88;;;;;;;;;;5067584;28;20036;-57
2021/12/10 13:57:30;;;;;;;3.47;1.80;;;;;;;;;;5067801;28;20407;-57
2021/12/10 13:59:59;;;;;;;4.68;1.60;;;;;;;;;;5067823;28;20032;-57
2021/12/10 14:02:33;;;;;;;4.80;1.52;;;;;;;;;;5067879;28;20021;-57
2021/12/10 14:04:59;;;;;;;3.22;1.48;;;;;;;;;;5067073;28;20054;-57
2021/12/10 14:07:29;;;;;;;7.07;1.70;;;;;;;;;;5067680;28;20021;-57
2021/12/10 14:09:58;;;;;;;5.03;1.35;;;;;;;;;;5067674;28;20029;-57
2021/12/10 14:12:44;;;;;;;3.60;1.38;;;;;;;;;;5066971;28;20099;-57
2021/12/10 14:15:13;;;;;;;4.55;1.50;;;;;;;;;;5065186;28;20029;-57
2021/12/10 14:17:42;;;;;;;2.80;1.30;;;;;;;;;;5065088;28;20529;-57
2021/12/10 14:20:08;;;;;;;3.40;1.00;;;;;;;;;;5065376;28;20165;-57
2021/12/10 14:22:37;;;;;;;2.22;1.20;;;;;;;;;;5067748;28;20021;-57
2021/12/10 14:25:13;;;;;;;4.13;1.65;;;;;;;;;;5060253;28;20462;-58
2021/12/10 14:27:47;;;;;;;4.90;1.33;;;;;;;;;;5066330;28;20033;-57
2021/12/10 14:30:13;;;;;;;3.40;1.35;;;;;;;;;;5066197;28;20039;-57
2021/12/10 14:32:39;;;;;;;2.85;1.23;;;;;;;;;;5067967;28;20029;-57
2021/12/10 14:35:05;;;;;;;4.57;1.30;;;;;;;;;;5067182;28;20107;-57
2021/12/10 14:37:52;;;;;;;4.78;1.30;;;;;;;;;;5065956;28;20036;-57
2021/12/10 14:40:19;;;;;;;1.88;0.90;;;;;;;;;;5067039;28;20032;-57
2021/12/10 14:43:03;;;;;;;2.85;1.10;;;;;;;;;;5067184;28;20025;-57
2021/12/10 14:45:29;;;;;;;3.47;1.23;;;;;;;;;;5068191;28;20031;-57
2021/12/10 14:48:09;;;;;;;3.95;1.80;;;;;;;;;;5067758;28;20099;-57
2021/12/10 14:50:35;;;;;;;3.35;1.40;;;;;;;;;;5048366;28;20063;-57
2021/12/10 14:53:01;;;;;;;5.13;2.05;;;;;;;;;;5068296;28;20453;-57
2021/12/10 14:55:30;;;;;;;10.27;2.45;;;;;;;;;;5068670;28;20029;-57
2021/12/10 14:57:56;;;;;;;10.00;2.70;;;;;;;;;;5068580;28;20451;-57
2021/12/10 15:00:33;;;;;;;9.20;2.97;;;;;;;;;;5067317;28;20492;-57
2021/12/10 15:03:05;;;;;;;10.57;4.05;;;;;;;;;;5065041;28;20029;-57
2021/12/10 15:05:43;;;;;;;13.18;4.30;;;;;;;;;;5064552;28;20036;-57